sensor_id;sensor_type;location;lat;lon;timestamp;pressure;altitude;pressure_sealevel;temperature;humidity
54900;BME280;40801;41.924;25.562;2023-05-12T00:02:09;99982.78;;;10.84;67.11
54900;BME280;40801;41.924;25.562;2023-05-12T00:04:34;99985.78;;;10.83;67.13
54900;BME280;40801;41.924;25.562;2023-05-12T00:07:00;99984.53;;;10.75;67.47
54900;BME280;40801;41.924;25.562;2023-05-12T00:09:26;99982.34;;;10.77;67.83
54900;BME280;40801;41.924;25.562;2023-05-12T00:11:52;99986.44;;;10.75;67.57
54900;BME280;40801;41.924;25.562;2023-05-12T00:14:18;99975.53;;;10.61;68.21
54900;BME280;40801;41.924;25.562;2023-05-12T00:16:44;99976.25;;;10.67;67.67
54900;BME280;40801;41.924;25.562;2023-05-12T00:19:09;99981.16;;;10.65;67.79
54900;BME280;40801;41.924;25.562;2023-05-12T00:21:35;99980.63;;;10.63;67.72
54900;BME280;40801;41.924;25.562;2023-05-12T00:24:00;99986.91;;;10.58;67.96
54900;BME280;40801;41.924;25.562;2023-05-12T00:26:26;99984.28;;;10.53;68.38
54900;BME280;40801;41.924;25.562;2023-05-12T00:28:51;99981.81;;;10.57;68.13
54900;BME280;40801;41.924;25.562;2023-05-12T00:31:17;99983.19;;;10.54;68.29
54900;BME280;40801;41.924;25.562;2023-05-12T00:33:42;99989.22;;;10.46;68.47
54900;BME280;40801;41.924;25.562;2023-05-12T00:36:08;99987.44;;;10.36;68.63
54900;BME280;40801;41.924;25.562;2023-05-12T00:38:33;99989.53;;;10.44;68.38
54900;BME280;40801;41.924;25.562;2023-05-12T00:41:01;99988.22;;;10.42;68.06
54900;BME280;40801;41.924;25.562;2023-05-12T00:43:26;99989.06;;;10.37;68.30
54900;BME280;40801;41.924;25.562;2023-05-12T00:45:51;99992.03;;;10.36;68.26
54900;BME280;40801;41.924;25.562;2023-05-12T00:48:17;99983.44;;;10.34;68.01
54900;BME280;40801;41.924;25.562;2023-05-12T00:50:43;99985.41;;;10.28;68.44
54900;BME280;40801;41.924;25.562;2023-05-12T00:53:09;99985.47;;;10.23;68.76
54900;BME280;40801;41.924;25.562;2023-05-12T00:55:35;99989.00;;;10.18;68.39
54900;BME280;40801;41.924;25.562;2023-05-12T00:58:02;99989.75;;;10.24;68.43
54900;BME280;40801;41.924;25.562;2023-05-12T01:00:28;99992.16;;;10.26;67.91
54900;BME280;40801;41.924;25.562;2023-05-12T01:02:54;99991.94;;;10.22;68.20
54900;BME280;40801;41.924;25.562;2023-05-12T01:05:26;99986.47;;;10.27;67.67
54900;BME280;40801;41.924;25.562;2023-05-12T01:07:55;99993.03;;;10.21;68.07
54900;BME280;40801;41.924;25.562;2023-05-12T01:10:21;99990.84;;;10.23;67.85
54900;BME280;40801;41.924;25.562;2023-05-12T01:12:46;99989.53;;;10.20;67.70
54900;BME280;40801;41.924;25.562;2023-05-12T01:15:12;99989.53;;;10.20;67.98
54900;BME280;40801;41.924;25.562;2023-05-12T01:17:41;99986.25;;;10.23;67.84
54900;BME280;40801;41.924;25.562;2023-05-12T01:20:08;99985.78;;;10.16;68.08
54900;BME280;40801;41.924;25.562;2023-05-12T01:22:36;99977.91;;;10.20;68.13
54900;BME280;40801;41.924;25.562;2023-05-12T01:25:04;99989.78;;;10.19;67.81
54900;BME280;40801;41.924;25.562;2023-05-12T01:27:32;99987.69;;;10.11;67.97
54900;BME280;40801;41.924;25.562;2023-05-12T01:29:59;99982.28;;;10.16;68.09
54900;BME280;40801;41.924;25.562;2023-05-12T01:32:25;99978.81;;;10.10;68.09
54900;BME280;40801;41.924;25.562;2023-05-12T01:34:51;99973.44;;;10.10;68.18
54900;BME280;40801;41.924;25.562;2023-05-12T01:37:16;99973.63;;;10.19;67.50
54900;BME280;40801;41.924;25.562;2023-05-12T01:39:42;99974.72;;;10.18;67.55
54900;BME280;40801;41.924;25.562;2023-05-12T01:42:07;99978.50;;;10.17;67.80
54900;BME280;40801;41.924;25.562;2023-05-12T01:44:33;99977.41;;;10.18;67.70
54900;BME280;40801;41.924;25.562;2023-05-12T01:46:58;99976.84;;;10.21;67.19
54900;BME280;40801;41.924;25.562;2023-05-12T01:49:24;99979.56;;;10.21;67.08
54900;BME280;40801;41.924;25.562;2023-05-12T01:51:49;99981.69;;;10.19;67.44
54900;BME280;40801;41.924;25.562;2023-05-12T01:54:15;99989.00;;;10.18;67.65
54900;BME280;40801;41.924;25.562;2023-05-12T01:56:40;99987.09;;;10.19;67.50
54900;BME280;40801;41.924;25.562;2023-05-12T01:59:06;99990.59;;;10.19;67.17
54900;BME280;40801;41.924;25.562;2023-05-12T02:01:32;99993.28;;;10.19;67.29
54900;BME280;40801;41.924;25.562;2023-05-12T02:03:58;99986.84;;;10.20;66.91
54900;BME280;40801;41.924;25.562;2023-05-12T02:06:24;99987.38;;;10.17;67.13
54900;BME280;40801;41.924;25.562;2023-05-12T02:08:50;99988.75;;;10.15;67.51
54900;BME280;40801;41.924;25.562;2023-05-12T02:11:15;99987.19;;;10.09;67.49
54900;BME280;40801;41.924;25.562;2023-05-12T02:13:41;99983.69;;;10.08;67.67
54900;BME280;40801;41.924;25.562;2023-05-12T02:16:09;99976.47;;;10.04;67.98
54900;BME280;40801;41.924;25.562;2023-05-12T02:18:35;99983.53;;;10.00;68.28
54900;BME280;40801;41.924;25.562;2023-05-12T02:21:00;99981.13;;;9.98;68.24
54900;BME280;40801;41.924;25.562;2023-05-12T02:23:25;99985.13;;;10.01;68.09
54900;BME280;40801;41.924;25.562;2023-05-12T02:25:51;99980.47;;;10.06;67.38
54900;BME280;40801;41.924;25.562;2023-05-12T02:28:16;99982.66;;;10.04;67.22
54900;BME280;40801;41.924;25.562;2023-05-12T02:30:46;99990.75;;;10.04;67.32
54900;BME280;40801;41.924;25.562;2023-05-12T02:33:21;99984.56;;;10.04;67.48
54900;BME280;40801;41.924;25.562;2023-05-12T02:35:47;99989.84;;;9.90;68.37
54900;BME280;40801;41.924;25.562;2023-05-12T02:38:13;99983.28;;;9.96;67.36
54900;BME280;40801;41.924;25.562;2023-05-12T02:40:38;99982.78;;;9.94;68.04
54900;BME280;40801;41.924;25.562;2023-05-12T02:43:04;99993.28;;;9.96;67.78
54900;BME280;40801;41.924;25.562;2023-05-12T02:45:29;99990.91;;;9.89;68.42
54900;BME280;40801;41.924;25.562;2023-05-12T02:47:55;99993.84;;;9.92;68.34
54900;BME280;40801;41.924;25.562;2023-05-12T02:50:20;99991.38;;;9.96;67.83
54900;BME280;40801;41.924;25.562;2023-05-12T02:52:47;99993.31;;;9.90;68.34
54900;BME280;40801;41.924;25.562;2023-05-12T02:55:12;99995.00;;;9.86;69.11
54900;BME280;40801;41.924;25.562;2023-05-12T02:57:38;99998.78;;;9.80;69.11
54900;BME280;40801;41.924;25.562;2023-05-12T03:00:04;100000.41;;;9.81;69.06
54900;BME280;40801;41.924;25.562;2023-05-12T03:02:34;100004.47;;;9.79;69.04
54900;BME280;40801;41.924;25.562;2023-05-12T03:05:00;100010.53;;;9.66;71.21
54900;BME280;40801;41.924;25.562;2023-05-12T03:07:25;100009.97;;;9.69;69.55
54900;BME280;40801;41.924;25.562;2023-05-12T03:09:51;100010.75;;;9.69;69.37
54900;BME280;40801;41.924;25.562;2023-05-12T03:12:16;100005.72;;;9.62;69.64
54900;BME280;40801;41.924;25.562;2023-05-12T03:14:42;100012.41;;;9.65;69.64
54900;BME280;40801;41.924;25.562;2023-05-12T03:17:07;100015.34;;;9.69;69.61
54900;BME280;40801;41.924;25.562;2023-05-12T03:19:33;100013.50;;;9.64;69.50
54900;BME280;40801;41.924;25.562;2023-05-12T03:21:59;100017.69;;;9.75;69.14
54900;BME280;40801;41.924;25.562;2023-05-12T03:24:25;100017.47;;;9.72;69.46
54900;BME280;40801;41.924;25.562;2023-05-12T03:26:50;100022.81;;;9.77;69.48
54900;BME280;40801;41.924;25.562;2023-05-12T03:29:16;100016.28;;;9.83;69.28
54900;BME280;40801;41.924;25.562;2023-05-12T03:31:41;100018.72;;;9.84;69.08
54900;BME280;40801;41.924;25.562;2023-05-12T03:34:07;100021.06;;;9.91;68.84
54900;BME280;40801;41.924;25.562;2023-05-12T03:36:32;100012.34;;;9.99;68.38
54900;BME280;40801;41.924;25.562;2023-05-12T03:38:57;100026.28;;;10.06;68.58
54900;BME280;40801;41.924;25.562;2023-05-12T03:41:23;100021.13;;;10.10;68.26
54900;BME280;40801;41.924;25.562;2023-05-12T03:43:48;100027.72;;;9.99;68.86
54900;BME280;40801;41.924;25.562;2023-05-12T03:46:14;100022.28;;;10.04;68.71
54900;BME280;40801;41.924;25.562;2023-05-12T03:48:39;100031.75;;;10.01;68.95
54900;BME280;40801;41.924;25.562;2023-05-12T03:51:05;100033.91;;;9.99;69.43
54900;BME280;40801;41.924;25.562;2023-05-12T03:53:30;100031.09;;;10.09;68.74
54900;BME280;40801;41.924;25.562;2023-05-12T03:55:56;100041.25;;;10.22;68.18
54900;BME280;40801;41.924;25.562;2023-05-12T03:58:24;100044.69;;;10.28;67.74
54900;BME280;40801;41.924;25.562;2023-05-12T04:00:50;100040.63;;;10.31;67.62
54900;BME280;40801;41.924;25.562;2023-05-12T04:03:16;100038.44;;;10.33;68.20
54900;BME280;40801;41.924;25.562;2023-05-12T04:05:41;100046.72;;;10.41;67.23
54900;BME280;40801;41.924;25.562;2023-05-12T04:08:07;100050.31;;;10.32;68.03
54900;BME280;40801;41.924;25.562;2023-05-12T04:10:40;100043.53;;;10.34;68.71
54900;BME280;40801;41.924;25.562;2023-05-12T04:13:06;100043.03;;;10.32;68.20
54900;BME280;40801;41.924;25.562;2023-05-12T04:15:35;100043.75;;;10.43;67.80
54900;BME280;40801;41.924;25.562;2023-05-12T04:18:01;100046.75;;;10.60;67.38
54900;BME280;40801;41.924;25.562;2023-05-12T04:20:27;100047.72;;;10.69;67.17
54900;BME280;40801;41.924;25.562;2023-05-12T04:22:52;100046.50;;;10.80;66.71
54900;BME280;40801;41.924;25.562;2023-05-12T04:25:17;100047.31;;;10.81;66.58
54900;BME280;40801;41.924;25.562;2023-05-12T04:27:43;100044.16;;;10.74;66.98
54900;BME280;40801;41.924;25.562;2023-05-12T04:30:08;100048.63;;;10.83;66.73
54900;BME280;40801;41.924;25.562;2023-05-12T04:32:33;100052.28;;;10.93;67.17
54900;BME280;40801;41.924;25.562;2023-05-12T04:34:59;100049.38;;;11.08;66.47
54900;BME280;40801;41.924;25.562;2023-05-12T04:37:24;100047.84;;;11.21;66.19
54900;BME280;40801;41.924;25.562;2023-05-12T04:39:50;100046.16;;;11.25;66.00
54900;BME280;40801;41.924;25.562;2023-05-12T04:42:15;100048.34;;;11.41;65.51
54900;BME280;40801;41.924;25.562;2023-05-12T04:44:41;100048.19;;;11.52;65.31
54900;BME280;40801;41.924;25.562;2023-05-12T04:47:06;100048.31;;;11.60;65.07
54900;BME280;40801;41.924;25.562;2023-05-12T04:49:31;100046.09;;;11.81;64.69
54900;BME280;40801;41.924;25.562;2023-05-12T04:51:57;100044.44;;;11.99;64.62
54900;BME280;40801;41.924;25.562;2023-05-12T04:54:22;100051.56;;;12.08;64.21
54900;BME280;40801;41.924;25.562;2023-05-12T04:56:48;100050.81;;;12.22;63.20
54900;BME280;40801;41.924;25.562;2023-05-12T04:59:13;100043.78;;;12.21;62.95
54900;BME280;40801;41.924;25.562;2023-05-12T05:01:42;100053.03;;;12.47;62.56
54900;BME280;40801;41.924;25.562;2023-05-12T05:04:07;100050.63;;;12.73;62.29
54900;BME280;40801;41.924;25.562;2023-05-12T05:06:33;100043.38;;;12.82;62.11
54900;BME280;40801;41.924;25.562;2023-05-12T05:08:58;100038.09;;;13.13;60.91
54900;BME280;40801;41.924;25.562;2023-05-12T05:11:24;100046.28;;;13.36;60.66
54900;BME280;40801;41.924;25.562;2023-05-12T05:13:50;100036.97;;;13.50;59.94
54900;BME280;40801;41.924;25.562;2023-05-12T05:16:15;100037.06;;;13.59;59.54
54900;BME280;40801;41.924;25.562;2023-05-12T05:18:41;100038.72;;;13.69;59.04
54900;BME280;40801;41.924;25.562;2023-05-12T05:21:13;100038.22;;;13.67;59.07
54900;BME280;40801;41.924;25.562;2023-05-12T05:23:38;100043.69;;;13.53;58.87
54900;BME280;40801;41.924;25.562;2023-05-12T05:26:04;100046.84;;;13.69;58.42
54900;BME280;40801;41.924;25.562;2023-05-12T05:28:29;100046.53;;;13.70;58.50
54900;BME280;40801;41.924;25.562;2023-05-12T05:30:55;100054.81;;;13.29;58.26
54900;BME280;40801;41.924;25.562;2023-05-12T05:33:21;100044.94;;;13.47;57.63
54900;BME280;40801;41.924;25.562;2023-05-12T05:35:47;100045.69;;;13.61;57.51
54900;BME280;40801;41.924;25.562;2023-05-12T05:38:13;100043.34;;;13.68;57.32
54900;BME280;40801;41.924;25.562;2023-05-12T05:40:38;100061.63;;;13.62;58.18
54900;BME280;40801;41.924;25.562;2023-05-12T05:43:03;100047.88;;;13.81;57.74
54900;BME280;40801;41.924;25.562;2023-05-12T05:45:29;100051.00;;;13.97;57.64
54900;BME280;40801;41.924;25.562;2023-05-12T05:47:55;100047.81;;;13.95;57.60
54900;BME280;40801;41.924;25.562;2023-05-12T05:50:20;100053.28;;;14.04;56.81
54900;BME280;40801;41.924;25.562;2023-05-12T05:52:45;100043.31;;;13.90;57.37
54900;BME280;40801;41.924;25.562;2023-05-12T05:55:11;100045.97;;;13.82;57.64
54900;BME280;40801;41.924;25.562;2023-05-12T05:57:36;100055.41;;;14.15;56.84
54900;BME280;40801;41.924;25.562;2023-05-12T06:00:03;100053.00;;;14.14;56.82
54900;BME280;40801;41.924;25.562;2023-05-12T06:02:29;100052.56;;;13.89;57.47
54900;BME280;40801;41.924;25.562;2023-05-12T06:04:56;100056.97;;;13.85;57.35
54900;BME280;40801;41.924;25.562;2023-05-12T06:07:21;100061.53;;;13.99;56.77
54900;BME280;40801;41.924;25.562;2023-05-12T06:09:47;100051.84;;;14.06;56.63
54900;BME280;40801;41.924;25.562;2023-05-12T06:12:12;100055.13;;;14.25;56.79
54900;BME280;40801;41.924;25.562;2023-05-12T06:14:37;100052.88;;;14.50;55.98
54900;BME280;40801;41.924;25.562;2023-05-12T06:17:03;100048.13;;;14.73;55.85
54900;BME280;40801;41.924;25.562;2023-05-12T06:19:28;100040.84;;;14.91;55.39
54900;BME280;40801;41.924;25.562;2023-05-12T06:21:54;100045.50;;;15.07;55.14
54900;BME280;40801;41.924;25.562;2023-05-12T06:24:19;100050.94;;;15.07;55.15
54900;BME280;40801;41.924;25.562;2023-05-12T06:26:44;100042.94;;;15.19;54.79
54900;BME280;40801;41.924;25.562;2023-05-12T06:29:10;100050.28;;;15.19;54.91
54900;BME280;40801;41.924;25.562;2023-05-12T06:31:35;100046.31;;;15.16;54.60
54900;BME280;40801;41.924;25.562;2023-05-12T06:34:00;100043.28;;;15.44;54.47
54900;BME280;40801;41.924;25.562;2023-05-12T06:36:27;100045.34;;;15.47;53.84
54900;BME280;40801;41.924;25.562;2023-05-12T06:38:53;100045.34;;;15.56;53.55
54900;BME280;40801;41.924;25.562;2023-05-12T06:41:18;100049.66;;;15.57;53.65
54900;BME280;40801;41.924;25.562;2023-05-12T06:43:43;100050.47;;;15.74;53.74
54900;BME280;40801;41.924;25.562;2023-05-12T06:46:09;100054.25;;;15.99;53.33
54900;BME280;40801;41.924;25.562;2023-05-12T06:48:34;100042.44;;;15.95;52.83
54900;BME280;40801;41.924;25.562;2023-05-12T06:51:00;100046.78;;;15.79;52.53
54900;BME280;40801;41.924;25.562;2023-05-12T06:53:25;100036.47;;;16.02;51.57
54900;BME280;40801;41.924;25.562;2023-05-12T06:55:50;100034.47;;;16.28;52.08
54900;BME280;40801;41.924;25.562;2023-05-12T06:58:17;100036.63;;;16.43;51.36
54900;BME280;40801;41.924;25.562;2023-05-12T07:00:46;100040.22;;;16.65;51.21
54900;BME280;40801;41.924;25.562;2023-05-12T07:03:11;100035.50;;;16.83;50.82
54900;BME280;40801;41.924;25.562;2023-05-12T07:05:36;100037.25;;;16.87;50.71
54900;BME280;40801;41.924;25.562;2023-05-12T07:08:02;100045.00;;;16.38;50.86
54900;BME280;40801;41.924;25.562;2023-05-12T07:10:27;100038.88;;;16.50;50.42
54900;BME280;40801;41.924;25.562;2023-05-12T07:12:53;100043.38;;;16.37;50.53
54900;BME280;40801;41.924;25.562;2023-05-12T07:15:18;100035.56;;;16.36;50.44
54900;BME280;40801;41.924;25.562;2023-05-12T07:17:43;100039.25;;;15.85;50.91
54900;BME280;40801;41.924;25.562;2023-05-12T07:20:09;100045.53;;;15.68;51.51
54900;BME280;40801;41.924;25.562;2023-05-12T07:22:34;100047.72;;;15.92;51.31
54900;BME280;40801;41.924;25.562;2023-05-12T07:25:01;100044.69;;;15.93;50.81
54900;BME280;40801;41.924;25.562;2023-05-12T07:27:26;100048.25;;;15.68;50.81
54900;BME280;40801;41.924;25.562;2023-05-12T07:29:52;100048.03;;;15.90;50.29
54900;BME280;40801;41.924;25.562;2023-05-12T07:32:17;100047.88;;;15.95;50.05
54900;BME280;40801;41.924;25.562;2023-05-12T07:34:42;100044.03;;;15.88;49.28
54900;BME280;40801;41.924;25.562;2023-05-12T07:37:09;100043.88;;;15.84;49.47
54900;BME280;40801;41.924;25.562;2023-05-12T07:39:34;100057.63;;;15.88;49.48
54900;BME280;40801;41.924;25.562;2023-05-12T07:42:00;100055.03;;;16.08;49.19
54900;BME280;40801;41.924;25.562;2023-05-12T07:44:25;100049.94;;;15.98;49.76
54900;BME280;40801;41.924;25.562;2023-05-12T07:46:51;100054.03;;;16.60;49.72
54900;BME280;40801;41.924;25.562;2023-05-12T07:49:16;100057.78;;;16.76;48.86
54900;BME280;40801;41.924;25.562;2023-05-12T07:51:42;100048.75;;;17.14;48.47
54900;BME280;40801;41.924;25.562;2023-05-12T07:54:07;100044.50;;;17.25;47.90
54900;BME280;40801;41.924;25.562;2023-05-12T07:56:33;100039.41;;;17.56;46.97
54900;BME280;40801;41.924;25.562;2023-05-12T07:58:59;100041.41;;;18.13;46.56
54900;BME280;40801;41.924;25.562;2023-05-12T08:01:25;100041.50;;;18.62;45.74
54900;BME280;40801;41.924;25.562;2023-05-12T08:03:50;100040.00;;;18.89;44.10
54900;BME280;40801;41.924;25.562;2023-05-12T08:06:16;100037.78;;;19.47;43.75
54900;BME280;40801;41.924;25.562;2023-05-12T08:08:42;100038.75;;;20.26;42.58
54900;BME280;40801;41.924;25.562;2023-05-12T08:11:07;100042.66;;;20.41;41.08
54900;BME280;40801;41.924;25.562;2023-05-12T08:13:35;100037.84;;;20.22;40.97
54900;BME280;40801;41.924;25.562;2023-05-12T08:16:00;100041.53;;;19.83;40.67
54900;BME280;40801;41.924;25.562;2023-05-12T08:18:26;100046.47;;;19.37;41.34
54900;BME280;40801;41.924;25.562;2023-05-12T08:20:51;100043.28;;;19.35;40.78
54900;BME280;40801;41.924;25.562;2023-05-12T08:23:16;100041.91;;;19.41;40.72
54900;BME280;40801;41.924;25.562;2023-05-12T08:25:42;100042.75;;;19.29;40.60
54900;BME280;40801;41.924;25.562;2023-05-12T08:28:09;100042.28;;;19.67;40.45
54900;BME280;40801;41.924;25.562;2023-05-12T08:30:35;100049.19;;;19.77;40.34
54900;BME280;40801;41.924;25.562;2023-05-12T08:33:01;100037.41;;;20.04;39.53
54900;BME280;40801;41.924;25.562;2023-05-12T08:35:27;100041.13;;;19.96;39.53
54900;BME280;40801;41.924;25.562;2023-05-12T08:37:52;100037.06;;;20.06;39.47
54900;BME280;40801;41.924;25.562;2023-05-12T08:40:22;100042.47;;;20.34;38.54
54900;BME280;40801;41.924;25.562;2023-05-12T08:42:54;100038.56;;;20.19;38.48
54900;BME280;40801;41.924;25.562;2023-05-12T08:45:24;100035.47;;;20.21;38.41
54900;BME280;40801;41.924;25.562;2023-05-12T08:47:50;100039.19;;;20.13;38.84
54900;BME280;40801;41.924;25.562;2023-05-12T08:50:20;100051.81;;;20.33;39.00
54900;BME280;40801;41.924;25.562;2023-05-12T08:52:47;100041.44;;;20.54;38.59
54900;BME280;40801;41.924;25.562;2023-05-12T08:55:14;100045.19;;;20.34;38.46
54900;BME280;40801;41.924;25.562;2023-05-12T08:57:40;100039.72;;;20.50;38.71
54900;BME280;40801;41.924;25.562;2023-05-12T09:00:10;100044.69;;;20.60;37.94
54900;BME280;40801;41.924;25.562;2023-05-12T09:02:36;100042.47;;;20.34;38.12
54900;BME280;40801;41.924;25.562;2023-05-12T09:05:03;100041.06;;;20.40;38.44
54900;BME280;40801;41.924;25.562;2023-05-12T09:07:29;100035.66;;;20.59;38.13
54900;BME280;40801;41.924;25.562;2023-05-12T09:09:56;100036.19;;;20.02;38.40
54900;BME280;40801;41.924;25.562;2023-05-12T09:12:24;100029.75;;;20.57;38.08
54900;BME280;40801;41.924;25.562;2023-05-12T09:14:59;100031.44;;;20.81;37.39
54900;BME280;40801;41.924;25.562;2023-05-12T09:17:27;100037.72;;;20.97;38.13
54900;BME280;40801;41.924;25.562;2023-05-12T09:19:52;100033.88;;;21.56;37.54
54900;BME280;40801;41.924;25.562;2023-05-12T09:22:26;100023.91;;;21.48;34.54
54900;BME280;40801;41.924;25.562;2023-05-12T09:24:52;100028.97;;;20.92;36.63
54900;BME280;40801;41.924;25.562;2023-05-12T09:27:23;100030.22;;;20.79;35.92
54900;BME280;40801;41.924;25.562;2023-05-12T09:29:50;100035.97;;;20.73;37.24
54900;BME280;40801;41.924;25.562;2023-05-12T09:32:15;100029.19;;;20.52;37.17
54900;BME280;40801;41.924;25.562;2023-05-12T09:34:42;100036.59;;;20.20;37.27
54900;BME280;40801;41.924;25.562;2023-05-12T09:37:07;100037.31;;;20.17;37.54
54900;BME280;40801;41.924;25.562;2023-05-12T09:39:34;100034.31;;;20.06;37.45
54900;BME280;40801;41.924;25.562;2023-05-12T09:42:00;100043.66;;;19.89;38.16
54900;BME280;40801;41.924;25.562;2023-05-12T09:44:25;100040.34;;;19.28;38.83
54900;BME280;40801;41.924;25.562;2023-05-12T09:46:53;100044.47;;;19.62;38.23
54900;BME280;40801;41.924;25.562;2023-05-12T09:49:20;100045.03;;;19.67;37.83
54900;BME280;40801;41.924;25.562;2023-05-12T09:51:46;100037.75;;;20.03;37.46
54900;BME280;40801;41.924;25.562;2023-05-12T09:54:11;100040.16;;;20.83;37.64
54900;BME280;40801;41.924;25.562;2023-05-12T09:56:38;100045.97;;;21.17;36.59
54900;BME280;40801;41.924;25.562;2023-05-12T09:59:04;100046.78;;;21.37;35.64
54900;BME280;40801;41.924;25.562;2023-05-12T10:01:30;100035.72;;;21.14;35.08
54900;BME280;40801;41.924;25.562;2023-05-12T10:03:57;100030.25;;;21.94;34.04
54900;BME280;40801;41.924;25.562;2023-05-12T10:06:26;100025.66;;;21.99;34.62
54900;BME280;40801;41.924;25.562;2023-05-12T10:11:39;100043.81;;;21.84;34.49
54900;BME280;40801;41.924;25.562;2023-05-12T10:14:04;100039.41;;;21.79;34.51
54900;BME280;40801;41.924;25.562;2023-05-12T10:16:32;100031.78;;;22.34;34.02
54900;BME280;40801;41.924;25.562;2023-05-12T10:18:58;100029.81;;;23.44;32.69
54900;BME280;40801;41.924;25.562;2023-05-12T10:21:24;100027.97;;;23.89;32.78
54900;BME280;40801;41.924;25.562;2023-05-12T10:23:51;100025.31;;;23.62;32.62
54900;BME280;40801;41.924;25.562;2023-05-12T10:26:17;100026.22;;;23.10;32.99
54900;BME280;40801;41.924;25.562;2023-05-12T10:28:44;100035.09;;;22.47;33.60
54900;BME280;40801;41.924;25.562;2023-05-12T10:31:10;100033.06;;;21.75;34.50
54900;BME280;40801;41.924;25.562;2023-05-12T10:33:36;100029.06;;;21.15;35.38
54900;BME280;40801;41.924;25.562;2023-05-12T10:36:02;100025.03;;;20.73;36.02
54900;BME280;40801;41.924;25.562;2023-05-12T10:38:35;100016.88;;;20.77;36.14
54900;BME280;40801;41.924;25.562;2023-05-12T10:41:04;99997.44;;;21.79;34.82
54900;BME280;40801;41.924;25.562;2023-05-12T10:43:41;99997.88;;;22.53;32.95
54900;BME280;40801;41.924;25.562;2023-05-12T10:46:18;99999.19;;;23.15;32.90
54900;BME280;40801;41.924;25.562;2023-05-12T10:51:46;100000.53;;;22.99;31.72
54900;BME280;40801;41.924;25.562;2023-05-12T10:54:18;99996.56;;;23.26;33.14
54900;BME280;40801;41.924;25.562;2023-05-12T10:56:44;100000.81;;;23.54;33.01
54900;BME280;40801;41.924;25.562;2023-05-12T10:59:15;99993.97;;;24.18;31.80
54900;BME280;40801;41.924;25.562;2023-05-12T11:04:19;99986.41;;;24.56;30.50
54900;BME280;40801;41.924;25.562;2023-05-12T11:06:56;99978.59;;;24.65;29.85
54900;BME280;40801;41.924;25.562;2023-05-12T11:09:23;99978.06;;;25.14;30.05
54900;BME280;40801;41.924;25.562;2023-05-12T11:11:49;99976.59;;;25.42;29.73
54900;BME280;40801;41.924;25.562;2023-05-12T11:14:15;99980.59;;;24.71;30.46
54900;BME280;40801;41.924;25.562;2023-05-12T11:16:44;99976.84;;;24.39;30.54
54900;BME280;40801;41.924;25.562;2023-05-12T11:19:10;99972.19;;;24.50;30.61
54900;BME280;40801;41.924;25.562;2023-05-12T11:21:35;99975.13;;;24.24;30.98
54900;BME280;40801;41.924;25.562;2023-05-12T11:24:02;99984.03;;;23.62;30.97
54900;BME280;40801;41.924;25.562;2023-05-12T11:26:28;99977.28;;;23.56;30.96
54900;BME280;40801;41.924;25.562;2023-05-12T11:28:56;99965.63;;;23.03;31.42
54900;BME280;40801;41.924;25.562;2023-05-12T11:31:22;99966.47;;;22.80;31.78
54900;BME280;40801;41.924;25.562;2023-05-12T11:33:48;99963.59;;;22.70;32.01
54900;BME280;40801;41.924;25.562;2023-05-12T11:36:15;99968.47;;;23.43;31.76
54900;BME280;40801;41.924;25.562;2023-05-12T11:38:49;99955.94;;;24.31;29.77
54900;BME280;40801;41.924;25.562;2023-05-12T11:41:23;99945.00;;;25.21;28.73
54900;BME280;40801;41.924;25.562;2023-05-12T11:43:50;99950.91;;;25.16;29.10
54900;BME280;40801;41.924;25.562;2023-05-12T11:46:26;99948.66;;;24.63;29.01
54900;BME280;40801;41.924;25.562;2023-05-12T11:48:58;99956.88;;;24.05;29.92
54900;BME280;40801;41.924;25.562;2023-05-12T11:51:25;99956.88;;;23.27;30.47
54900;BME280;40801;41.924;25.562;2023-05-12T11:53:51;99960.81;;;22.96;31.44
54900;BME280;40801;41.924;25.562;2023-05-12T11:56:21;99958.41;;;22.91;31.23
54900;BME280;40801;41.924;25.562;2023-05-12T11:58:57;99957.34;;;22.73;31.78
54900;BME280;40801;41.924;25.562;2023-05-12T12:01:24;99953.22;;;23.53;31.81
54900;BME280;40801;41.924;25.562;2023-05-12T12:03:53;99944.56;;;24.39;29.54
54900;BME280;40801;41.924;25.562;2023-05-12T12:06:19;99938.72;;;25.35;29.08
54900;BME280;40801;41.924;25.562;2023-05-12T12:08:57;99937.63;;;25.89;27.95
54900;BME280;40801;41.924;25.562;2023-05-12T12:11:24;99935.25;;;26.23;27.74
54900;BME280;40801;41.924;25.562;2023-05-12T12:13:55;99940.00;;;26.02;27.54
54900;BME280;40801;41.924;25.562;2023-05-12T12:16:23;99938.72;;;25.39;27.55
54900;BME280;40801;41.924;25.562;2023-05-12T12:18:49;99946.88;;;25.03;28.27
54900;BME280;40801;41.924;25.562;2023-05-12T12:21:14;99937.75;;;24.88;28.17
54900;BME280;40801;41.924;25.562;2023-05-12T12:23:40;99945.94;;;24.16;29.13
54900;BME280;40801;41.924;25.562;2023-05-12T12:26:05;99941.47;;;23.56;29.86
54900;BME280;40801;41.924;25.562;2023-05-12T12:28:31;99941.56;;;23.30;29.84
54900;BME280;40801;41.924;25.562;2023-05-12T12:30:56;99945.97;;;23.04;30.68
54900;BME280;40801;41.924;25.562;2023-05-12T12:33:22;99937.00;;;23.11;30.06
54900;BME280;40801;41.924;25.562;2023-05-12T12:35:48;99933.66;;;24.06;29.53
54900;BME280;40801;41.924;25.562;2023-05-12T12:38:13;99929.38;;;24.74;28.91
54900;BME280;40801;41.924;25.562;2023-05-12T12:40:39;99933.50;;;25.12;28.66
54900;BME280;40801;41.924;25.562;2023-05-12T12:43:04;99927.63;;;25.17;28.36
54900;BME280;40801;41.924;25.562;2023-05-12T12:45:30;99926.88;;;25.38;28.19
54900;BME280;40801;41.924;25.562;2023-05-12T12:47:55;99920.63;;;25.66;27.74
54900;BME280;40801;41.924;25.562;2023-05-12T12:50:21;99923.78;;;26.29;26.70